createdAt,value
2023-01-31T00:00:50.623Z,2.94
2023-01-31T00:03:19.255Z,2.94
2023-01-31T00:05:47.886Z,2.92
2023-01-31T00:08:16.506Z,2.86
2023-01-31T00:10:45.133Z,2.87
2023-01-31T00:13:13.703Z,2.83
2023-01-31T00:15:42.305Z,2.80
2023-01-31T00:18:12.331Z,2.85
2023-01-31T00:20:40.971Z,2.81
2023-01-31T00:23:09.594Z,2.83
2023-01-31T00:25:38.564Z,2.76
2023-01-31T00:28:07.699Z,2.79
2023-01-31T00:30:36.845Z,2.72
2023-01-31T00:33:05.828Z,2.76
2023-01-31T00:35:39.695Z,2.68
2023-01-31T00:38:08.360Z,2.70
2023-01-31T00:40:37.285Z,2.70
2023-01-31T00:43:05.944Z,2.62
2023-01-31T00:45:34.664Z,2.62
2023-01-31T00:48:03.478Z,2.63
2023-01-31T00:50:32.093Z,2.64
2023-01-31T00:53:02.128Z,2.62
2023-01-31T00:55:30.799Z,2.62
2023-01-31T00:57:59.410Z,2.59
2023-01-31T01:00:28.130Z,2.65
2023-01-31T01:02:56.777Z,2.69
2023-01-31T01:05:25.459Z,2.65
2023-01-31T01:07:54.112Z,2.65
2023-01-31T01:10:24.261Z,2.59
2023-01-31T01:12:52.887Z,2.63
2023-01-31T01:15:21.851Z,2.71
2023-01-31T01:17:51.127Z,2.65
2023-01-31T01:20:19.891Z,2.67
2023-01-31T01:22:48.575Z,2.63
2023-01-31T01:25:17.277Z,2.58
2023-01-31T01:27:47.325Z,2.58
2023-01-31T01:30:16.227Z,2.61
2023-01-31T01:32:44.937Z,2.73
2023-01-31T01:35:13.522Z,2.75
2023-01-31T01:37:42.163Z,2.67
2023-01-31T01:40:11.922Z,2.67
2023-01-31T01:42:40.494Z,2.66
2023-01-31T01:45:16.121Z,2.69
2023-01-31T01:47:50.130Z,2.66
2023-01-31T01:50:22.790Z,2.61
2023-01-31T01:52:53.474Z,2.58
2023-01-31T01:55:25.021Z,2.56
2023-01-31T01:57:56.934Z,2.57
2023-01-31T02:00:30.024Z,2.53
2023-01-31T02:03:01.034Z,2.53
2023-01-31T02:05:33.014Z,2.48
2023-01-31T02:08:02.335Z,2.46
2023-01-31T02:10:33.748Z,2.38
2023-01-31T02:13:03.496Z,2.35
2023-01-31T02:15:34.441Z,2.37
2023-01-31T02:18:03.246Z,2.34
2023-01-31T02:20:55.985Z,2.39
2023-01-31T02:23:51.732Z,2.35
2023-01-31T02:26:52.529Z,2.32
2023-01-31T02:29:35.667Z,2.27
2023-01-31T02:32:29.062Z,2.31
2023-01-31T02:35:04.986Z,2.32
2023-01-31T02:37:39.071Z,2.33
2023-01-31T02:40:12.174Z,2.29
2023-01-31T02:42:47.896Z,2.35
2023-01-31T02:45:21.616Z,2.29
2023-01-31T02:48:03.002Z,2.27
2023-01-31T02:50:35.548Z,2.24
2023-01-31T02:53:07.148Z,2.20
2023-01-31T02:55:57.008Z,2.21
2023-01-31T02:58:28.368Z,2.22
2023-01-31T03:00:57.947Z,2.23
2023-01-31T03:03:31.198Z,2.23
2023-01-31T03:06:45.459Z,2.24
2023-01-31T03:09:21.436Z,2.20
2023-01-31T03:11:56.742Z,2.19
2023-01-31T03:14:30.023Z,2.15
2023-01-31T03:17:21.362Z,2.17
2023-01-31T03:20:00.277Z,2.22
2023-01-31T03:22:31.384Z,2.22
2023-01-31T03:25:00.403Z,2.21
2023-01-31T03:27:29.263Z,2.22
2023-01-31T03:30:01.372Z,2.19
2023-01-31T03:32:34.034Z,2.20
2023-01-31T03:35:04.120Z,2.17
2023-01-31T03:37:42.317Z,2.20
2023-01-31T03:40:13.832Z,2.18
2023-01-31T03:42:47.197Z,2.16
2023-01-31T03:45:20.203Z,2.20
2023-01-31T03:47:51.159Z,2.17
2023-01-31T03:50:25.685Z,2.16
2023-01-31T03:52:58.231Z,2.17
2023-01-31T03:55:32.483Z,2.19
2023-01-31T03:58:02.636Z,2.18
2023-01-31T04:00:31.391Z,2.17
2023-01-31T04:03:05.824Z,2.14
2023-01-31T04:05:35.798Z,2.16
2023-01-31T04:08:04.638Z,2.18
2023-01-31T04:10:33.518Z,2.20
2023-01-31T04:13:02.580Z,2.20
2023-01-31T04:15:31.188Z,2.18
2023-01-31T04:17:59.853Z,2.20
2023-01-31T04:20:28.442Z,2.18
2023-01-31T04:22:59.839Z,2.13
2023-01-31T04:25:29.460Z,2.10
2023-01-31T04:27:59.728Z,2.01
2023-01-31T04:30:28.432Z,2.02
2023-01-31T04:32:57.060Z,2.02
2023-01-31T04:35:25.712Z,2.01
2023-01-31T04:37:54.285Z,1.95
2023-01-31T04:40:24.256Z,1.94
2023-01-31T04:42:52.902Z,1.92
2023-01-31T04:45:21.768Z,1.82
2023-01-31T04:47:50.960Z,1.82
2023-01-31T04:50:19.680Z,1.78
2023-01-31T04:52:50.597Z,1.76
2023-01-31T04:55:19.804Z,1.78
2023-01-31T04:57:49.895Z,1.76
2023-01-31T05:00:19.915Z,1.78
2023-01-31T05:02:49.930Z,1.77
2023-01-31T05:05:19.322Z,1.77
2023-01-31T05:07:48.116Z,1.79
2023-01-31T05:10:18.189Z,1.77
2023-01-31T05:12:47.946Z,1.71
2023-01-31T05:15:18.401Z,1.73
2023-01-31T05:17:48.515Z,1.73
2023-01-31T05:20:17.818Z,1.72
2023-01-31T05:22:48.101Z,1.70
2023-01-31T05:25:16.980Z,1.61
2023-01-31T05:27:45.678Z,1.64
2023-01-31T05:30:14.743Z,1.60
2023-01-31T05:32:45.785Z,1.60
2023-01-31T05:35:14.474Z,1.58
2023-01-31T05:37:43.393Z,1.61
2023-01-31T05:40:13.329Z,1.62
2023-01-31T05:42:42.167Z,1.67
2023-01-31T05:45:12.335Z,1.66
2023-01-31T05:47:40.918Z,1.67
2023-01-31T05:50:12.575Z,1.69
2023-01-31T05:52:41.193Z,1.68
2023-01-31T05:55:10.348Z,1.65
2023-01-31T05:57:38.958Z,1.70
2023-01-31T06:00:08.875Z,1.68
2023-01-31T06:02:37.554Z,1.77
2023-01-31T06:05:06.801Z,1.78
2023-01-31T06:07:36.806Z,1.73
2023-01-31T06:10:06.861Z,1.76
2023-01-31T06:12:36.625Z,1.72
2023-01-31T06:15:05.932Z,1.67
2023-01-31T06:17:34.518Z,1.76
2023-01-31T06:20:03.548Z,1.77
2023-01-31T06:22:32.514Z,1.73
2023-01-31T06:25:02.819Z,1.73
2023-01-31T06:27:33.108Z,1.65
2023-01-31T06:30:01.760Z,1.66
2023-01-31T06:32:30.596Z,1.66
2023-01-31T06:34:59.225Z,1.63
2023-01-31T06:37:27.836Z,1.56
2023-01-31T06:39:56.845Z,1.60
2023-01-31T06:42:26.847Z,1.58
2023-01-31T06:44:55.412Z,1.51
2023-01-31T06:47:24.067Z,1.52
2023-01-31T06:49:52.718Z,1.51
2023-01-31T06:52:21.426Z,1.52
2023-01-31T06:54:50.120Z,1.58
2023-01-31T06:57:18.743Z,1.48
2023-01-31T06:59:48.735Z,1.52
2023-01-31T07:02:17.643Z,1.46
2023-01-31T07:04:46.294Z,1.41
2023-01-31T07:07:14.935Z,1.48
2023-01-31T07:09:43.904Z,1.49
2023-01-31T07:12:12.591Z,1.41
2023-01-31T07:14:42.571Z,1.37
2023-01-31T07:17:12.497Z,1.44
2023-01-31T07:19:41.214Z,1.49
2023-01-31T07:22:09.877Z,1.48
2023-01-31T07:24:38.601Z,1.48
2023-01-31T07:27:07.758Z,1.44
2023-01-31T07:29:38.290Z,1.41
2023-01-31T07:32:07.203Z,1.34
2023-01-31T07:34:37.498Z,1.39
2023-01-31T07:37:06.053Z,1.36
2023-01-31T07:39:34.696Z,1.32
2023-01-31T07:42:03.360Z,1.40
2023-01-31T07:44:32.149Z,1.47
2023-01-31T07:47:00.959Z,1.53
2023-01-31T07:49:29.773Z,1.51
2023-01-31T07:51:59.770Z,1.55
2023-01-31T07:54:28.415Z,1.57
2023-01-31T07:56:57.085Z,1.56
2023-01-31T07:59:25.757Z,1.48
2023-01-31T08:02:12.040Z,1.51
2023-01-31T08:04:40.720Z,1.51
2023-01-31T08:07:10.781Z,1.49
2023-01-31T08:09:40.097Z,1.55
2023-01-31T08:12:08.795Z,1.55
2023-01-31T08:14:37.480Z,1.61
2023-01-31T08:17:08.202Z,1.64
2023-01-31T08:19:37.158Z,1.63
2023-01-31T08:22:06.252Z,1.70
2023-01-31T08:24:36.249Z,1.73
2023-01-31T08:27:05.080Z,1.79
2023-01-31T08:29:33.726Z,1.81
2023-01-31T08:32:03.200Z,1.88
2023-01-31T08:34:31.901Z,1.93
2023-01-31T08:37:00.943Z,1.88
2023-01-31T08:39:29.633Z,1.94
2023-01-31T08:41:59.631Z,1.98
2023-01-31T08:44:28.303Z,2.07
2023-01-31T08:46:59.152Z,2.22
2023-01-31T08:49:27.921Z,2.35
2023-01-31T08:51:56.621Z,2.33
2023-01-31T08:54:25.263Z,2.41
2023-01-31T08:56:53.941Z,2.48
2023-01-31T08:59:23.978Z,2.56
2023-01-31T09:01:52.732Z,2.58
2023-01-31T09:04:21.560Z,2.52
2023-01-31T09:06:50.282Z,2.63
2023-01-31T09:09:18.987Z,2.71
2023-01-31T09:11:47.645Z,2.67
2023-01-31T09:14:16.319Z,2.78
2023-01-31T09:16:47.032Z,2.91
2023-01-31T09:19:15.949Z,2.97
2023-01-31T09:21:44.545Z,3.05
2023-01-31T09:24:13.257Z,3.10
2023-01-31T09:26:41.967Z,3.11
2023-01-31T09:29:10.569Z,3.27
2023-01-31T09:31:39.245Z,3.25
2023-01-31T09:34:09.226Z,3.35
2023-01-31T09:36:38.057Z,3.49
2023-01-31T09:39:06.759Z,3.65
2023-01-31T09:41:38.237Z,3.70
2023-01-31T09:44:08.436Z,3.74
2023-01-31T09:46:38.753Z,3.81
2023-01-31T09:49:15.246Z,3.67
2023-01-31T09:51:44.698Z,3.67
2023-01-31T09:54:19.734Z,3.60
2023-01-31T09:56:55.880Z,3.76
2023-01-31T09:59:27.136Z,3.80
2023-01-31T10:02:00.364Z,3.90
2023-01-31T10:04:50.446Z,3.86
2023-01-31T10:07:22.239Z,3.94
2023-01-31T10:09:55.207Z,4.01
2023-01-31T10:12:26.127Z,4.04
2023-01-31T10:14:57.558Z,4.12
2023-01-31T10:17:29.252Z,4.20
2023-01-31T10:20:01.830Z,4.14
2023-01-31T10:22:39.129Z,4.08
2023-01-31T10:25:20.896Z,4.22
2023-01-31T10:27:51.662Z,4.20
2023-01-31T10:30:23.551Z,4.13
2023-01-31T10:32:56.230Z,4.25
2023-01-31T10:35:31.382Z,4.24
2023-01-31T10:38:03.200Z,4.26
2023-01-31T10:40:34.307Z,4.22
2023-01-31T10:43:10.099Z,4.27
2023-01-31T10:45:38.759Z,4.42
2023-01-31T10:48:15.872Z,4.52
2023-01-31T10:50:57.148Z,4.60
2023-01-31T10:53:40.201Z,4.66
2023-01-31T10:56:13.859Z,4.65
2023-01-31T10:58:42.736Z,4.76
2023-01-31T11:01:12.265Z,4.70
2023-01-31T11:03:41.807Z,4.69
2023-01-31T11:06:13.133Z,4.78
2023-01-31T11:08:44.471Z,4.81
2023-01-31T11:11:16.618Z,4.86
2023-01-31T11:13:57.573Z,4.89
2023-01-31T11:16:27.481Z,4.84
2023-01-31T11:18:56.173Z,4.62
2023-01-31T11:21:28.130Z,4.62
2023-01-31T11:24:04.872Z,4.71
2023-01-31T11:26:35.408Z,4.61
2023-01-31T11:29:10.428Z,4.70
2023-01-31T11:31:42.008Z,4.64
2023-01-31T11:34:21.657Z,4.55
2023-01-31T11:36:52.154Z,4.47
2023-01-31T11:39:31.954Z,4.40
2023-01-31T11:42:07.001Z,4.48
2023-01-31T11:44:35.585Z,4.50
2023-01-31T11:47:05.778Z,4.69
2023-01-31T11:49:35.827Z,4.85
2023-01-31T11:52:16.151Z,4.93
2023-01-31T11:54:48.367Z,4.86
2023-01-31T11:57:17.698Z,4.76
2023-01-31T11:59:49.181Z,4.88
2023-01-31T12:02:27.090Z,4.70
2023-01-31T12:04:55.999Z,4.73
2023-01-31T12:07:29.034Z,4.85
2023-01-31T12:09:57.805Z,4.93
2023-01-31T12:12:33.434Z,4.80
2023-01-31T12:15:03.860Z,4.87
2023-01-31T12:17:36.218Z,4.91
2023-01-31T12:20:27.561Z,4.94
2023-01-31T12:23:07.906Z,4.96
2023-01-31T12:25:47.390Z,4.98
2023-01-31T12:28:25.500Z,4.93
2023-01-31T12:31:06.677Z,4.97
2023-01-31T12:33:47.403Z,5.06
2023-01-31T12:36:24.578Z,5.12
2023-01-31T12:39:19.960Z,5.23
2023-01-31T12:41:56.819Z,5.31
2023-01-31T12:44:39.457Z,5.23
2023-01-31T12:47:19.963Z,5.43
2023-01-31T12:50:18.214Z,5.48
2023-01-31T12:52:53.911Z,5.45
2023-01-31T12:55:28.902Z,5.41
2023-01-31T12:58:11.042Z,5.38
2023-01-31T13:00:46.611Z,5.39
2023-01-31T13:03:28.781Z,5.32
2023-01-31T13:05:59.223Z,5.29
2023-01-31T13:08:29.951Z,5.24
2023-01-31T13:11:03.541Z,5.12
2023-01-31T13:13:34.730Z,5.06
2023-01-31T13:16:07.028Z,4.99
2023-01-31T13:18:36.209Z,4.84
2023-01-31T13:21:07.523Z,4.77
2023-01-31T13:23:39.398Z,4.82
2023-01-31T13:26:12.893Z,4.45
2023-01-31T13:28:45.920Z,4.42
2023-01-31T13:31:20.255Z,4.60
2023-01-31T13:33:53.304Z,4.52
2023-01-31T13:36:26.260Z,4.64
2023-01-31T13:38:54.999Z,4.69
2023-01-31T13:41:28.417Z,4.59
2023-01-31T13:43:57.952Z,4.52
2023-01-31T13:46:32.179Z,4.56
2023-01-31T13:49:02.764Z,4.50
2023-01-31T13:51:36.251Z,4.55
2023-01-31T13:54:08.691Z,4.42
2023-01-31T13:56:40.509Z,4.49
2023-01-31T13:59:11.136Z,4.51
2023-01-31T14:01:46.741Z,4.57
2023-01-31T14:04:39.105Z,4.53
2023-01-31T14:07:20.919Z,4.48
2023-01-31T14:10:25.649Z,4.52
2023-01-31T14:13:35.979Z,4.47
2023-01-31T14:16:38.645Z,4.54
2023-01-31T14:19:55.040Z,4.41
2023-01-31T14:22:25.904Z,4.44
2023-01-31T14:25:00.151Z,4.38
2023-01-31T14:27:32.502Z,4.37
2023-01-31T14:30:10.795Z,4.39
2023-01-31T14:32:44.790Z,4.43
2023-01-31T14:35:30.950Z,4.32
2023-01-31T14:38:07.614Z,4.33
2023-01-31T14:40:42.038Z,4.33
2023-01-31T14:43:25.188Z,4.31
2023-01-31T14:46:04.450Z,4.29
2023-01-31T14:49:02.771Z,4.21
2023-01-31T14:51:44.620Z,4.28
2023-01-31T14:54:21.826Z,4.22
2023-01-31T14:56:56.148Z,4.24
2023-01-31T14:59:30.909Z,4.19
2023-01-31T15:01:59.930Z,4.20
2023-01-31T15:04:30.157Z,4.25
2023-01-31T15:06:58.957Z,4.27
2023-01-31T15:09:37.696Z,4.25
2023-01-31T15:12:45.030Z,4.28
2023-01-31T15:15:25.119Z,4.35
2023-01-31T15:17:54.638Z,4.40
2023-01-31T15:20:24.476Z,4.43
2023-01-31T15:22:55.277Z,4.41
2023-01-31T15:25:31.464Z,4.44
2023-01-31T15:28:01.102Z,4.43
2023-01-31T15:30:34.007Z,4.44
2023-01-31T15:33:08.207Z,4.36
2023-01-31T15:35:43.937Z,4.31
2023-01-31T15:38:20.433Z,4.38
2023-01-31T15:40:49.068Z,4.42
2023-01-31T15:43:19.037Z,4.43
2023-01-31T15:45:52.320Z,4.47
2023-01-31T15:48:22.135Z,4.47
2023-01-31T15:50:52.574Z,4.47
2023-01-31T15:53:23.900Z,4.38
2023-01-31T15:55:56.864Z,4.35
2023-01-31T15:58:27.760Z,4.32
2023-01-31T16:00:59.355Z,4.26
2023-01-31T16:03:29.539Z,4.23
2023-01-31T16:05:59.542Z,4.29
2023-01-31T16:08:32.657Z,4.31
2023-01-31T16:11:02.064Z,4.32
2023-01-31T16:13:31.183Z,4.35
2023-01-31T16:16:01.297Z,4.27
2023-01-31T16:18:29.956Z,4.27
2023-01-31T16:20:58.775Z,4.27
2023-01-31T16:23:30.528Z,4.28
2023-01-31T16:26:04.469Z,4.22
2023-01-31T16:28:39.873Z,4.25
2023-01-31T16:31:12.075Z,4.28
2023-01-31T16:33:47.562Z,4.27
2023-01-31T16:36:18.515Z,4.29
2023-01-31T16:38:56.805Z,4.28
2023-01-31T16:41:39.384Z,4.30
2023-01-31T16:44:14.620Z,4.25
2023-01-31T16:46:46.420Z,4.25
2023-01-31T16:49:23.793Z,4.22
2023-01-31T16:51:55.663Z,4.25
2023-01-31T16:54:25.358Z,4.24
2023-01-31T16:57:08.648Z,4.22
2023-01-31T16:59:46.116Z,4.23
2023-01-31T17:02:20.184Z,4.17
2023-01-31T17:04:50.096Z,4.12
2023-01-31T17:07:21.455Z,4.18
2023-01-31T17:09:50.767Z,4.12
2023-01-31T17:12:22.424Z,4.11
2023-01-31T17:14:52.910Z,4.16
2023-01-31T17:17:23.091Z,4.18
2023-01-31T17:19:51.752Z,4.14
2023-01-31T17:22:20.440Z,4.12
2023-01-31T17:24:49.358Z,4.13
2023-01-31T17:27:18.808Z,4.14
2023-01-31T17:29:48.019Z,4.13
2023-01-31T17:32:18.396Z,4.12
2023-01-31T17:34:48.911Z,4.11
2023-01-31T17:37:30.113Z,4.10
2023-01-31T17:40:00.939Z,4.10
2023-01-31T17:42:29.633Z,4.11
2023-01-31T17:44:58.286Z,4.13
2023-01-31T17:47:27.169Z,4.13
2023-01-31T17:49:57.380Z,4.12
2023-01-31T17:52:26.138Z,4.13
2023-01-31T17:54:54.806Z,4.16
2023-01-31T17:57:23.428Z,4.14
2023-01-31T17:59:52.158Z,4.17
2023-01-31T18:02:20.878Z,4.14
2023-01-31T18:04:49.582Z,4.13
2023-01-31T18:07:19.687Z,4.12
2023-01-31T18:09:48.369Z,4.09
2023-01-31T18:12:17.168Z,4.14
2023-01-31T18:14:45.851Z,4.15
2023-01-31T18:17:14.647Z,4.14
2023-01-31T18:19:43.237Z,4.13
2023-01-31T18:22:11.871Z,3.98
2023-01-31T18:24:42.079Z,4.01
2023-01-31T18:27:10.849Z,4.01
2023-01-31T18:29:39.922Z,4.03
2023-01-31T18:32:09.799Z,4.03
2023-01-31T18:34:38.895Z,4.06
2023-01-31T18:37:13.024Z,4.08
2023-01-31T18:39:43.049Z,4.10
2023-01-31T18:42:11.842Z,4.08
2023-01-31T18:44:40.502Z,4.09
2023-01-31T18:47:09.276Z,3.97
2023-01-31T18:49:38.008Z,3.99
2023-01-31T18:52:07.250Z,4.06
2023-01-31T18:54:37.564Z,4.02
2023-01-31T18:57:07.605Z,4.06
2023-01-31T18:59:36.199Z,4.06
2023-01-31T19:02:04.871Z,4.07
2023-01-31T19:04:33.564Z,4.08
2023-01-31T19:07:02.227Z,4.04
2023-01-31T19:09:30.913Z,4.03
2023-01-31T19:11:59.527Z,4.05
2023-01-31T19:14:30.043Z,4.06
2023-01-31T19:16:59.421Z,4.09
2023-01-31T19:19:28.111Z,4.08
2023-01-31T19:21:57.122Z,4.11
2023-01-31T19:24:25.759Z,4.14
2023-01-31T19:26:54.421Z,4.06
2023-01-31T19:29:23.111Z,4.04
2023-01-31T19:31:54.976Z,4.04
2023-01-31T19:34:23.887Z,4.11
2023-01-31T19:36:52.615Z,4.16
2023-01-31T19:39:21.447Z,4.14
2023-01-31T19:41:50.077Z,4.06
2023-01-31T19:44:20.364Z,4.05
2023-01-31T19:46:51.417Z,4.04
2023-01-31T19:49:22.124Z,4.11
2023-01-31T19:51:50.887Z,4.10
2023-01-31T19:54:20.794Z,4.11
2023-01-31T19:56:49.478Z,4.05
2023-01-31T19:59:19.716Z,4.05
2023-01-31T20:01:48.410Z,4.10
2023-01-31T20:04:17.160Z,4.07
2023-01-31T20:06:48.054Z,4.09
2023-01-31T20:09:20.072Z,4.06
2023-01-31T20:11:51.040Z,4.08
2023-01-31T20:14:19.887Z,4.07
2023-01-31T20:16:48.576Z,3.96
2023-01-31T20:19:19.617Z,3.87
2023-01-31T20:21:50.593Z,3.88
2023-01-31T20:24:19.586Z,3.92
2023-01-31T20:26:48.305Z,3.94
2023-01-31T20:29:17.050Z,3.92
2023-01-31T20:31:45.719Z,3.98
2023-01-31T20:34:14.472Z,4.00
2023-01-31T20:36:43.100Z,4.02
2023-01-31T20:39:13.362Z,4.04
2023-01-31T20:41:42.066Z,4.09
2023-01-31T20:44:10.669Z,4.08
2023-01-31T20:46:39.271Z,4.03
2023-01-31T20:49:07.916Z,4.03
2023-01-31T20:51:36.549Z,4.04
2023-01-31T20:54:06.103Z,4.02
2023-01-31T20:56:36.119Z,4.06
2023-01-31T20:59:04.729Z,4.05
2023-01-31T21:01:33.475Z,4.07
2023-01-31T21:04:02.110Z,4.07
2023-01-31T21:06:30.896Z,4.03
2023-01-31T21:08:59.553Z,4.04
2023-01-31T21:11:28.207Z,4.02
2023-01-31T21:13:58.268Z,4.03
2023-01-31T21:16:26.883Z,4.02
2023-01-31T21:18:56.479Z,3.93
2023-01-31T21:21:25.322Z,3.91
2023-01-31T21:23:55.375Z,3.92
2023-01-31T21:26:26.757Z,3.78
2023-01-31T21:28:55.617Z,3.75
2023-01-31T21:31:25.727Z,3.82
2023-01-31T21:33:54.491Z,3.79
2023-01-31T21:36:24.940Z,3.72
2023-01-31T21:38:53.992Z,3.77
2023-01-31T21:41:40.177Z,3.79
2023-01-31T21:44:08.930Z,3.77
2023-01-31T21:46:38.906Z,3.81
2023-01-31T21:49:08.371Z,3.70
2023-01-31T21:51:37.092Z,3.71
2023-01-31T21:54:05.863Z,3.73
2023-01-31T21:56:34.527Z,3.65
2023-01-31T21:59:03.170Z,3.71
2023-01-31T22:01:33.787Z,3.77
2023-01-31T22:04:04.060Z,3.77
2023-01-31T22:06:36.730Z,3.74
2023-01-31T22:09:06.971Z,3.77
2023-01-31T22:11:35.881Z,3.82
2023-01-31T22:14:06.561Z,3.81
2023-01-31T22:16:35.322Z,3.80
2023-01-31T22:19:05.488Z,3.81
2023-01-31T22:21:35.920Z,3.83
2023-01-31T22:24:06.144Z,3.88
2023-01-31T22:26:36.433Z,3.83
2023-01-31T22:29:06.478Z,3.84
2023-01-31T22:31:35.603Z,3.91
2023-01-31T22:34:06.449Z,3.94
2023-01-31T22:36:35.783Z,3.93
2023-01-31T22:39:04.819Z,3.95
2023-01-31T22:41:33.708Z,4.01
2023-01-31T22:44:02.356Z,4.04
2023-01-31T22:46:31.167Z,4.05
2023-01-31T22:48:59.815Z,3.97
2023-01-31T22:51:30.393Z,4.10
2023-01-31T22:53:59.416Z,4.11
2023-01-31T22:56:29.794Z,4.11
2023-01-31T22:59:00.138Z,4.06
2023-01-31T23:01:30.098Z,4.08
2023-01-31T23:04:00.510Z,4.12
2023-01-31T23:06:30.847Z,4.00
2023-01-31T23:08:59.584Z,4.04
2023-01-31T23:11:28.322Z,3.88
2023-01-31T23:13:57.699Z,3.87
2023-01-31T23:16:47.716Z,3.80
2023-01-31T23:19:17.241Z,3.84
2023-01-31T23:21:48.978Z,3.88
2023-01-31T23:24:18.987Z,3.90
2023-01-31T23:26:47.794Z,3.82
2023-01-31T23:29:16.597Z,3.77
2023-01-31T23:31:46.226Z,3.62
2023-01-31T23:34:14.911Z,3.70
2023-01-31T23:36:43.600Z,3.68
2023-01-31T23:39:13.588Z,3.70
2023-01-31T23:41:42.388Z,3.71
2023-01-31T23:44:10.984Z,3.67
2023-01-31T23:46:39.722Z,3.58
2023-01-31T23:49:08.423Z,3.52
2023-01-31T23:51:37.413Z,3.48
2023-01-31T23:54:06.159Z,3.50
2023-01-31T23:56:36.163Z,3.57
2023-01-31T23:59:04.799Z,3.60
